Time;durP1;ratioP1;P1;durP2;ratioP2;P2;SDS_P1;SDS_P2;PMS_P1;PMS_P2;Temp;Humidity;BMP_temperature;BMP_pressure;BME280_temperature;BME280_humidity;BME280_pressure;Samples;Min_cycle;Max_cycle;Signal;HPM_P1;HPM_P2
2021/10/28 05:31:08;;;;;;;;;;;;;;;;;;3842065;37;20497;-62
2021/10/28 05:33:34;;;;;;;17.58;9.38;;;;;;;;;;4403850;32;19976;-62
2021/10/28 05:36:00;;;;;;;17.10;8.98;;;;;;;;;;4403836;32;20213;-62
2021/10/28 05:38:26;;;;;;;13.68;10.18;;;;;;;;;;4403620;32;20112;-59
2021/10/28 05:40:52;;;;;;;14.13;10.18;;;;;;;;;;4402434;32;20128;-62
2021/10/28 05:43:17;;;;;;;18.60;10.35;;;;;;;;;;4403738;32;20193;-62
2021/10/28 05:45:45;;;;;;;16.02;10.55;;;;;;;;;;4403742;32;20109;-62
2021/10/28 05:48:11;;;;;;;17.75;10.07;;;;;;;;;;4403619;32;20114;-62
2021/10/28 05:50:40;;;;;;;11.10;9.55;;;;;;;;;;4403496;32;20140;-62
2021/10/28 05:53:08;;;;;;;13.52;10.18;;;;;;;;;;4362363;32;20196;-62
2021/10/28 05:55:34;;;;;;;16.52;9.80;;;;;;;;;;4403641;32;20212;-62
2021/10/28 05:57:59;;;;;;;16.40;8.75;;;;;;;;;;4403880;32;20129;-63
2021/10/28 06:00:25;;;;;;;13.32;9.00;;;;;;;;;;4402382;32;20121;-61
2021/10/28 06:02:52;;;;;;;14.90;8.45;;;;;;;;;;4374793;32;20124;-63
2021/10/28 06:05:18;;;;;;;15.98;9.23;;;;;;;;;;4379301;32;20111;-62
2021/10/28 06:07:44;;;;;;;16.92;10.07;;;;;;;;;;4403539;32;20116;-63
2021/10/28 06:10:11;;;;;;;14.38;8.77;;;;;;;;;;4398037;32;20140;-63
2021/10/28 06:12:40;;;;;;;16.77;9.48;;;;;;;;;;4388483;32;20183;-63
2021/10/28 06:15:07;;;;;;;13.40;9.85;;;;;;;;;;4390302;32;20202;-64
2021/10/28 06:17:35;;;;;;;12.60;9.40;;;;;;;;;;4403441;32;20120;-63
2021/10/28 06:20:02;;;;;;;12.80;9.43;;;;;;;;;;4403018;32;20200;-62
2021/10/28 06:22:29;;;;;;;15.38;9.63;;;;;;;;;;4397256;32;20169;-63
2021/10/28 06:24:55;;;;;;;16.45;9.02;;;;;;;;;;4388238;32;20104;-63
2021/10/28 06:27:21;;;;;;;12.52;9.65;;;;;;;;;;4392568;32;20197;-62
2021/10/28 06:29:47;;;;;;;15.98;9.50;;;;;;;;;;4403271;32;20206;-62
2021/10/28 06:32:14;;;;;;;15.38;9.52;;;;;;;;;;4403281;32;20444;-61
2021/10/28 06:34:43;;;;;;;14.90;9.45;;;;;;;;;;4403275;32;20119;-62
2021/10/28 06:37:09;;;;;;;19.08;9.60;;;;;;;;;;4403101;32;20542;-62
2021/10/28 06:39:35;;;;;;;14.18;9.20;;;;;;;;;;4403342;32;20451;-63
2021/10/28 06:42:03;;;;;;;17.37;9.43;;;;;;;;;;4395027;32;20214;-62
2021/10/28 06:44:32;;;;;;;12.40;8.25;;;;;;;;;;4393222;32;20516;-63
2021/10/28 06:46:58;;;;;;;16.92;9.50;;;;;;;;;;4393041;32;20170;-63
2021/10/28 06:49:24;;;;;;;12.70;9.13;;;;;;;;;;4393205;32;20116;-63
2021/10/28 06:51:50;;;;;;;14.68;9.75;;;;;;;;;;4389842;32;20094;-62
2021/10/28 06:54:28;;;;;;;15.02;8.93;;;;;;;;;;4392592;32;20108;-63
2021/10/28 07:04:46;;;;;;;13.95;8.65;;;;;;;;;;4392489;32;20133;-63
2021/10/28 07:07:13;;;;;;;11.63;8.23;;;;;;;;;;4366078;32;20205;-62
2021/10/28 07:09:47;;;;;;;17.75;9.45;;;;;;;;;;4392946;32;20185;-62
2021/10/28 07:12:21;;;;;;;14.48;9.15;;;;;;;;;;4388578;32;20126;-62
2021/10/28 07:14:51;;;;;;;14.13;9.70;;;;;;;;;;4377237;32;20241;-61
2021/10/28 08:06:00;;;;;;;14.35;9.30;;;;;;;;;;4392847;32;20535;-62
2021/10/28 08:15:14;;;;;;;16.55;9.13;;;;;;;;;;4362140;32;20311;-62
2021/10/28 08:19:49;;;;;;;14.13;8.63;;;;;;;;;;4392554;32;20116;-61
2021/10/28 08:22:23;;;;;;;10.95;8.23;;;;;;;;;;4392304;32;20100;-61
2021/10/28 08:30:11;;;;;;;15.20;6.10;;;;;;;;;;4392768;32;20101;-61
2021/10/28 08:32:38;;;;;;;10.30;5.70;;;;;;;;;;4392383;32;20116;-61
2021/10/28 08:35:05;;;;;;;10.45;6.53;;;;;;;;;;4392918;32;20101;-63
2021/10/28 08:37:39;;;;;;;12.50;8.45;;;;;;;;;;4392515;32;20196;-60
2021/10/28 08:40:07;;;;;;;13.15;8.43;;;;;;;;;;4392430;32;20079;-62
2021/10/28 08:42:34;;;;;;;6.32;4.43;;;;;;;;;;4392253;32;20124;-62
2021/10/28 08:45:00;;;;;;;16.95;9.07;;;;;;;;;;4392237;32;20447;-60
2021/10/28 08:47:27;;;;;;;9.93;5.95;;;;;;;;;;4392230;32;20514;-61
2021/10/28 08:50:00;;;;;;;18.55;8.50;;;;;;;;;;4388838;32;20137;-61
2021/10/28 09:24:06;;;;;;;13.15;7.97;;;;;;;;;;4391169;32;20205;-73
2021/10/28 09:29:12;;;;;;;11.07;7.43;;;;;;;;;;4389785;32;20108;-71
2021/10/28 09:31:47;;;;;;;12.40;8.00;;;;;;;;;;4391997;32;20511;-73
2021/10/28 09:34:52;;;;;;;9.95;7.10;;;;;;;;;;4377792;32;20119;-72
2021/10/28 09:43:42;;;;;;;11.43;8.15;;;;;;;;;;4390321;32;20200;-71
2021/10/28 09:46:16;;;;;;;12.35;8.40;;;;;;;;;;4391460;32;20459;-71
2021/10/28 09:51:18;;;;;;;11.82;8.65;;;;;;;;;;4377740;32;20144;-72
2021/10/28 09:59:29;;;;;;;13.90;8.00;;;;;;;;;;4391108;32;20108;-71
2021/10/28 10:02:06;;;;;;;13.30;7.37;;;;;;;;;;4391471;32;20201;-71
2021/10/28 10:04:32;;;;;;;12.95;7.97;;;;;;;;;;4391308;32;20117;-71
2021/10/28 10:06:59;;;;;;;14.65;7.55;;;;;;;;;;4391378;32;20500;-71
2021/10/28 10:09:25;;;;;;;11.05;7.35;;;;;;;;;;4389490;32;20171;-70
2021/10/28 10:11:51;;;;;;;13.02;7.45;;;;;;;;;;4389912;32;20457;-71
2021/10/28 10:14:19;;;;;;;12.13;7.53;;;;;;;;;;4389421;32;20127;-69
2021/10/28 10:16:46;;;;;;;14.90;8.35;;;;;;;;;;4392239;32;20274;-70
2021/10/28 10:19:14;;;;;;;16.17;8.35;;;;;;;;;;4393439;32;20098;-70
2021/10/28 10:21:44;;;;;;;9.88;7.05;;;;;;;;;;4392203;32;20164;-70
2021/10/28 10:24:35;;;;;;;10.45;6.68;;;;;;;;;;4392063;32;20507;-70
2021/10/28 10:27:49;;;;;;;11.48;7.18;;;;;;;;;;4393496;32;20325;-69
2021/10/28 12:55:25;;;;;;;7.72;5.07;;;;;;;;;;4392383;32;20121;-70
2021/10/28 13:55:37;;;;;;;5.65;4.53;;;;;;;;;;4394396;32;20109;-70
2021/10/28 14:30:56;;;;;;;8.43;4.95;;;;;;;;;;4390043;32;20477;-69
2021/10/28 15:01:19;;;;;;;9.45;5.15;;;;;;;;;;4392039;32;20448;-71
2021/10/28 15:38:54;;;;;;;12.52;7.05;;;;;;;;;;4392963;32;20498;-69
2021/10/28 15:42:20;;;;;;;12.23;6.65;;;;;;;;;;4393404;32;20213;-68
2021/10/28 15:47:33;;;;;;;9.02;6.20;;;;;;;;;;4393267;32;20098;-70
2021/10/28 15:50:48;;;;;;;10.32;6.87;;;;;;;;;;4391407;32;20523;-69
2021/10/28 15:56:14;;;;;;;12.02;7.25;;;;;;;;;;4376285;32;20117;-71
2021/10/28 16:22:48;;;;;;;12.75;7.62;;;;;;;;;;4391407;32;20090;-71
2021/10/28 16:25:14;;;;;;;15.70;9.02;;;;;;;;;;4392495;32;20125;-69
2021/10/28 16:27:40;;;;;;;11.12;7.30;;;;;;;;;;4392854;32;20449;-70
2021/10/28 16:30:07;;;;;;;9.60;7.60;;;;;;;;;;4392292;32;20523;-71
2021/10/28 16:32:33;;;;;;;12.90;8.48;;;;;;;;;;4392492;32;20119;-70
2021/10/28 16:34:59;;;;;;;10.77;7.40;;;;;;;;;;4392734;32;20460;-70
2021/10/28 16:37:29;;;;;;;10.18;6.72;;;;;;;;;;4392485;32;20222;-66
2021/10/28 22:25:15;;;;;;;11.60;7.85;;;;;;;;;;4404328;32;20109;-68
2021/10/28 22:27:41;;;;;;;11.20;7.90;;;;;;;;;;4404214;32;20505;-68
2021/10/28 22:30:08;;;;;;;12.30;7.55;;;;;;;;;;4404304;32;20117;-68
2021/10/28 22:32:36;;;;;;;9.98;7.72;;;;;;;;;;4402995;32;20135;-70
2021/10/28 22:35:06;;;;;;;9.68;7.10;;;;;;;;;;4404272;32;20177;-68
2021/10/28 22:40:17;;;;;;;13.27;8.48;;;;;;;;;;4404157;32;20447;-67
2021/10/28 22:42:43;;;;;;;13.73;7.53;;;;;;;;;;4402795;32;20104;-69
2021/10/28 22:45:09;;;;;;;11.52;8.38;;;;;;;;;;4402809;32;20113;-67
2021/10/28 22:47:34;;;;;;;12.48;7.43;;;;;;;;;;4404123;32;20209;-68
2021/10/28 22:50:00;;;;;;;12.15;8.50;;;;;;;;;;4404176;32;20097;-67
2021/10/28 22:52:28;;;;;;;12.50;7.75;;;;;;;;;;4404171;32;20128;-67
2021/10/28 22:54:58;;;;;;;13.75;7.75;;;;;;;;;;4402562;32;20111;-69
2021/10/28 22:57:34;;;;;;;14.20;8.30;;;;;;;;;;4390636;32;20517;-69
2021/10/28 23:00:04;;;;;;;12.93;7.65;;;;;;;;;;4404139;32;20128;-69
2021/10/28 23:05:48;;;;;;;9.48;7.10;;;;;;;;;;4403965;32;20098;-67
2021/10/28 23:20:59;;;;;;;11.63;7.12;;;;;;;;;;4371170;32;20110;-69
2021/10/28 23:23:25;;;;;;;12.18;8.43;;;;;;;;;;4358623;32;20132;-69
2021/10/28 23:25:50;;;;;;;9.73;7.55;;;;;;;;;;4386391;32;20125;-69
2021/10/28 23:28:16;;;;;;;9.68;7.00;;;;;;;;;;4394476;32;20105;-68
2021/10/28 23:30:42;;;;;;;11.50;7.32;;;;;;;;;;4393824;32;20113;-70
2021/10/28 23:33:08;;;;;;;14.23;8.30;;;;;;;;;;4393530;32;20572;-69
2021/10/28 23:35:35;;;;;;;11.60;6.53;;;;;;;;;;4392066;32;20763;-69
2021/10/28 23:38:00;;;;;;;13.40;7.30;;;;;;;;;;4392148;32;20189;-69
2021/10/28 23:40:27;;;;;;;13.48;7.22;;;;;;;;;;4392016;32;20189;-68
2021/10/28 23:42:53;;;;;;;14.48;8.13;;;;;;;;;;4393538;32;20093;-68
2021/10/28 23:45:19;;;;;;;13.57;7.30;;;;;;;;;;4393516;32;20097;-69
2021/10/28 23:47:44;;;;;;;12.50;7.90;;;;;;;;;;4393690;32;20209;-68
